Terminal Aerodrome Forecast
Issued by NWS

Home | Current Version | Previous Version | Text Only | Print | Product List | Glossary On
Versions: 1 2 3 4 5 6 7 8 9 10 11 12 13 14 15 16 17 18 19
000
FTUS43 KILX 042320
TAFCMI
TAF
KCMI 042320Z 0500/0524 05008KT P6SM VCTS SCT050CB BKN120
     FM050600 VRB06KT 5SM -SHRA BR VCTS BKN050CB
     FM050800 VRB06KT 5SM -SHRA BR VCTS SCT025CB BKN050
     FM051400 14009KT P6SM BKN035=

USA.gov is the U.S. government's official web portal to all federal, state and local government web resources and services.